WXM80 ListenWXM80 Stop

You find our weather info also at:

UK Metoffice

WeatherCloud

Weather Underground

Northeastern Weather Network

AWEKAS

Citizen Weather Observer Program (CWOP)

HAMweather, WeatherForYou, PWS Weather


Weather Underground History page Text

Daily Summary for July 3, 2016 Units:  English    Metric   Both
« Previous Day
Next Day »
Daily Weekly Monthly Yearly Custom
  High: Low: Average:
Temperature: 85.7 °F 60.9 °F 72.9 °F
Dew Point: 61.6 °F 54.2 °F 58.1 °F
Humidity: 86 % 37 % 62 %
Wind Speed: 6.0 mph 0.0 mph 1.4 mph
Wind Gust: 10.4 mph - -
Wind:- - SW
Pressure: 30.09 in 30.01 in -
Precipitation: 0.00 in    
Historical Graphs
 
 
Tabular Data for July 3, 2016
Time Temperature Dew Point Pressure Wind Wind Speed Wind Gust Humidity Rainfall Rate (Hourly)
00:02 68.2 °F 55.1 °F 30.02 in South 2.1 mph 3.5 mph 63 % 0.00 in
00:07 68.1 °F 55.0 °F 30.02 in South 0.1 mph 2.3 mph 63 % 0.00 in
00:12 68.1 °F 55.0 °F 30.02 in South 0.9 mph 2.3 mph 63 % 0.00 in
00:17 68.1 °F 55.0 °F 30.02 in Calm   1.2 mph 63 % 0.00 in
00:22 67.9 °F 54.8 °F 30.02 in SW 1.7 mph 2.0 mph 63 % 0.00 in
00:27 67.8 °F 54.3 °F 30.02 in SSW 1.0 mph 3.5 mph 62 % 0.00 in
00:33 67.8 °F 54.3 °F 30.02 in WSW 1.6 mph 2.3 mph 62 % 0.00 in
00:38 67.7 °F 54.6 °F 30.02 in WSW 0.2 mph 1.2 mph 63 % 0.00 in
00:43 67.6 °F 55.0 °F 30.02 in WSW 0.7 mph 2.3 mph 64 % 0.00 in
00:48 67.6 °F 55.0 °F 30.02 in SW 1.9 mph 3.5 mph 64 % 0.00 in
00:53 67.5 °F 54.9 °F 30.02 in SW 2.1 mph 3.5 mph 64 % 0.00 in
01:03 67.3 °F 55.1 °F 30.02 in SW 1.4 mph 3.5 mph 65 % 0.00 in
01:08 67.2 °F 55.0 °F 30.02 in SSW 0.3 mph 2.3 mph 65 % 0.00 in
01:13 67.1 °F 54.9 °F 30.02 in Calm   1.2 mph 65 % 0.00 in
01:18 67.0 °F 55.3 °F 30.02 in Calm     66 % 0.00 in
01:29 66.8 °F 55.1 °F 30.02 in Calm     66 % 0.00 in
01:34 66.6 °F 55.3 °F 30.02 in Calm     67 % 0.00 in
01:39 66.5 °F 55.6 °F 30.02 in SSW 0.4 mph 1.2 mph 68 % 0.00 in
01:44 66.4 °F 55.5 °F 30.02 in SSW 0.1 mph 1.2 mph 68 % 0.00 in
01:49 66.2 °F 55.3 °F 30.02 in SSW 0.9 mph 2.3 mph 68 % 0.00 in
01:54 66.1 °F 55.2 °F 30.02 in WSW 0.4 mph 1.2 mph 68 % 0.00 in
01:59 66.0 °F 55.5 °F 30.02 in SW 1.4 mph 2.3 mph 69 % 0.00 in
02:04 65.9 °F 55.4 °F 30.03 in SSW 1.4 mph 3.5 mph 69 % 0.00 in
02:10 65.8 °F 55.3 °F 30.03 in SW 1.9 mph 3.5 mph 69 % 0.00 in
02:15 65.8 °F 55.3 °F 30.03 in SW 2.0 mph 3.5 mph 69 % 0.00 in
02:20 65.8 °F 54.9 °F 30.03 in WSW 0.6 mph 3.5 mph 68 % 0.00 in
02:30 65.8 °F 55.3 °F 30.03 in WSW 1.1 mph 2.3 mph 69 % 0.00 in
02:40 65.9 °F 55.4 °F 30.03 in WSW 2.6 mph 4.0 mph 69 % 0.00 in
02:45 65.9 °F 55.4 °F 30.03 in SW 2.6 mph 3.5 mph 69 % 0.00 in
02:50 65.9 °F 55.4 °F 30.03 in West 1.0 mph 3.5 mph 69 % 0.00 in
02:55 66.0 °F 55.5 °F 30.03 in West 1.7 mph 3.5 mph 69 % 0.00 in
03:01 66.1 °F 56.0 °F 30.03 in SW 0.4 mph 2.3 mph 70 % 0.00 in
03:06 66.1 °F 56.0 °F 30.03 in SW 0.8 mph 2.3 mph 70 % 0.00 in
03:11 66.1 °F 56.0 °F 30.03 in Calm   1.2 mph 70 % 0.00 in
03:16 66.1 °F 56.4 °F 30.03 in Calm     71 % 0.00 in
03:21 66.0 °F 56.7 °F 30.03 in SW 0.2 mph 1.2 mph 72 % 0.00 in
03:26 65.8 °F 56.5 °F 30.03 in SW 0.8 mph 2.3 mph 72 % 0.00 in
03:31 65.6 °F 55.9 °F 30.03 in SW 0.5 mph 3.5 mph 71 % 0.00 in
03:36 65.4 °F 55.7 °F 30.03 in SW 0.1 mph 1.2 mph 71 % 0.00 in
03:41 65.2 °F 55.9 °F 30.03 in Calm   1.2 mph 72 % 0.00 in
03:46 65.0 °F 56.1 °F 30.03 in Calm     73 % 0.00 in
03:52 64.8 °F 56.3 °F 30.03 in Calm     74 % 0.00 in
03:57 64.5 °F 56.4 °F 30.03 in Calm     75 % 0.00 in
04:02 64.3 °F 56.2 °F 30.03 in SW 0.2 mph 1.2 mph 75 % 0.00 in
04:07 64.0 °F 56.3 °F 30.03 in Calm     76 % 0.00 in
04:12 63.7 °F 56.0 °F 30.04 in Calm     76 % 0.00 in
04:17 63.4 °F 56.1 °F 30.03 in Calm   1.2 mph 77 % 0.00 in
04:22 63.1 °F 55.8 °F 30.03 in SW 0.5 mph 1.2 mph 77 % 0.00 in
04:27 62.8 °F 55.8 °F 30.04 in SW 0.1 mph 1.2 mph 78 % 0.00 in
04:32 62.5 °F 55.5 °F 30.04 in SW 0.2 mph 1.2 mph 78 % 0.00 in
04:38 62.3 °F 55.7 °F 30.04 in SW 0.1 mph 1.2 mph 79 % 0.00 in
04:43 62.1 °F 55.9 °F 30.04 in SW 0.5 mph 1.2 mph 80 % 0.00 in
04:48 62.0 °F 55.8 °F 30.04 in SW 0.1 mph 1.2 mph 80 % 0.00 in
04:53 61.8 °F 55.9 °F 30.04 in Calm     81 % 0.00 in
04:58 61.6 °F 55.7 °F 30.04 in Calm     81 % 0.00 in
05:03 61.4 °F 55.5 °F 30.04 in Calm   1.2 mph 81 % 0.00 in
05:13 61.1 °F 55.9 °F 30.05 in SW 0.1 mph 2.3 mph 83 % 0.00 in
05:18 61.0 °F 55.8 °F 30.04 in SW 0.3 mph 2.3 mph 83 % 0.00 in
05:23 60.9 °F 55.7 °F 30.04 in SW 0.2 mph 1.0 mph 83 % 0.00 in
05:29 60.9 °F 55.7 °F 30.05 in SW 0.1 mph 1.2 mph 83 % 0.00 in
05:39 60.9 °F 55.7 °F 30.05 in WSW 1.2 mph 3.5 mph 83 % 0.00 in
05:44 60.9 °F 55.7 °F 30.06 in WSW 0.1 mph 1.2 mph 83 % 0.00 in
05:49 61.0 °F 55.8 °F 30.06 in WSW 0.6 mph 2.3 mph 83 % 0.00 in
05:59 61.3 °F 56.1 °F 30.06 in WSW 2.0 mph 4.0 mph 83 % 0.00 in
06:04 61.5 °F 56.0 °F 30.06 in SW 1.1 mph 2.3 mph 82 % 0.00 in
06:09 61.7 °F 56.1 °F 30.06 in SW 1.4 mph 2.3 mph 82 % 0.00 in
06:14 61.9 °F 56.3 °F 30.06 in SW 1.3 mph 3.5 mph 82 % 0.00 in
06:25 62.3 °F 56.4 °F 30.06 in SW 0.8 mph 3.5 mph 81 % 0.00 in
06:30 62.5 °F 56.2 °F 30.06 in WSW 1.7 mph 3.5 mph 80 % 0.00 in
06:35 62.8 °F 56.5 °F 30.06 in Calm   1.2 mph 80 % 0.00 in
06:40 63.2 °F 58.3 °F 30.06 in Calm   1.0 mph 84 % 0.00 in
06:45 63.6 °F 58.3 °F 30.06 in Calm   1.2 mph 83 % 0.00 in
06:50 64.0 °F 59.7 °F 30.06 in Calm     86 % 0.00 in
06:55 64.1 °F 58.5 °F 30.07 in WSW 0.6 mph 1.0 mph 82 % 0.00 in
07:00 64.4 °F 58.1 °F 30.07 in SW 1.0 mph 3.5 mph 80 % 0.00 in
07:05 64.8 °F 58.1 °F 30.07 in SW 2.0 mph 3.0 mph 79 % 0.00 in
07:11 65.2 °F 58.5 °F 30.07 in SW 1.2 mph 1.2 mph 79 % 0.00 in
07:16 65.7 °F 58.3 °F 30.07 in SW 1.5 mph 3.5 mph 77 % 0.00 in
07:21 66.3 °F 58.5 °F 30.08 in WSW 2.2 mph 3.5 mph 76 % 0.00 in
07:26 66.9 °F 58.7 °F 30.08 in WSW 0.8 mph 2.3 mph 75 % 0.00 in
07:36 67.9 °F 59.3 °F 30.08 in SSW 3.0 mph 4.0 mph 74 % 0.00 in
07:41 68.2 °F 58.8 °F 30.08 in SW 2.3 mph 3.5 mph 72 % 0.00 in
07:46 68.5 °F 58.7 °F 30.08 in SW 2.9 mph 3.5 mph 71 % 0.00 in
07:51 68.7 °F 58.5 °F 30.08 in WSW 2.5 mph 3.5 mph 70 % 0.00 in
07:56 68.9 °F 58.7 °F 30.08 in SW 0.5 mph 2.3 mph 70 % 0.00 in
08:02 69.0 °F 58.4 °F 30.08 in SW 2.8 mph 5.8 mph 69 % 0.00 in
08:07 69.2 °F 58.6 °F 30.08 in WSW 2.9 mph 4.6 mph 69 % 0.00 in
08:12 69.4 °F 59.2 °F 30.08 in WSW 1.6 mph 3.5 mph 70 % 0.00 in
08:17 69.5 °F 59.3 °F 30.08 in WSW 1.6 mph 3.5 mph 70 % 0.00 in
08:22 69.7 °F 59.5 °F 30.08 in SW 2.1 mph 3.5 mph 70 % 0.00 in
08:27 69.9 °F 59.7 °F 30.09 in WNW 1.0 mph 2.0 mph 70 % 0.00 in
08:32 70.1 °F 60.3 °F 30.09 in NW 1.7 mph 3.5 mph 71 % 0.00 in
08:37 70.3 °F 59.6 °F 30.09 in West 0.2 mph 3.5 mph 69 % 0.00 in
08:42 70.6 °F 60.3 °F 30.09 in SW 3.4 mph 4.6 mph 70 % 0.00 in
08:47 70.8 °F 60.5 °F 30.09 in North 1.1 mph 3.5 mph 70 % 0.00 in
08:52 71.1 °F 61.2 °F 30.09 in North 1.2 mph 2.3 mph 71 % 0.00 in
08:58 71.2 °F 60.1 °F 30.09 in South 0.7 mph 2.3 mph 68 % 0.00 in
09:03 71.4 °F 60.7 °F 30.09 in WNW 1.1 mph 2.3 mph 69 % 0.00 in
09:08 71.5 °F 59.1 °F 30.09 in WNW 1.3 mph 3.5 mph 65 % 0.00 in
09:13 71.7 °F 59.3 °F 30.09 in NNW 0.7 mph 2.3 mph 65 % 0.00 in
09:18 71.9 °F 58.2 °F 30.09 in West 2.2 mph 4.0 mph 62 % 0.00 in
09:23 72.0 °F 57.4 °F 30.09 in West 1.7 mph 3.5 mph 60 % 0.00 in
09:28 72.1 °F 57.0 °F 30.09 in WNW 0.5 mph 2.3 mph 59 % 0.00 in
09:33 72.3 °F 59.0 °F 30.09 in WNW 0.4 mph 1.2 mph 63 % 0.00 in
09:38 72.5 °F 58.3 °F 30.09 in West 0.7 mph 3.5 mph 61 % 0.00 in
09:43 72.6 °F 58.4 °F 30.09 in Calm     61 % 0.00 in
09:49 72.8 °F 59.0 °F 30.09 in SSW 0.5 mph 1.2 mph 62 % 0.00 in
09:59 73.3 °F 61.3 °F 30.09 in Calm   1.2 mph 66 % 0.00 in
10:04 73.5 °F 60.1 °F 30.09 in WNW 1.4 mph 3.5 mph 63 % 0.00 in
10:09 73.8 °F 59.0 °F 30.09 in SW 1.5 mph 3.5 mph 60 % 0.00 in
10:14 74.2 °F 59.4 °F 30.09 in WSW 1.4 mph 3.5 mph 60 % 0.00 in
10:19 74.8 °F 60.0 °F 30.09 in SSE 0.2 mph 1.2 mph 60 % 0.00 in
10:24 75.5 °F 59.2 °F 30.08 in SSE 0.3 mph 2.0 mph 57 % 0.00 in
10:34 77.1 °F 58.1 °F 30.08 in WNW 1.2 mph 3.5 mph 52 % 0.00 in
10:40 77.7 °F 57.6 °F 30.08 in WNW 1.1 mph 3.5 mph 50 % 0.00 in
10:45 78.5 °F 59.4 °F 30.08 in WNW 0.3 mph 2.3 mph 52 % 0.00 in
10:50 79.1 °F 57.7 °F 30.07 in WSW 1.5 mph 3.5 mph 48 % 0.00 in
10:55 79.6 °F 61.0 °F 30.07 in West 0.5 mph 2.0 mph 53 % 0.00 in
11:00 80.0 °F 59.7 °F 30.07 in NW 1.1 mph 3.5 mph 50 % 0.00 in
11:05 80.5 °F 57.8 °F 30.08 in WNW 0.1 mph 1.2 mph 46 % 0.00 in
11:10 81.2 °F 59.6 °F 30.08 in WSW 1.4 mph 3.5 mph 48 % 0.00 in
11:15 81.5 °F 54.2 °F 30.08 in SW 0.1 mph 3.5 mph 39 % 0.00 in
11:20 81.5 °F 58.1 °F 30.08 in WNW 1.4 mph 3.5 mph 45 % 0.00 in
11:25 81.7 °F 57.7 °F 30.07 in West 1.9 mph 3.5 mph 44 % 0.00 in
11:31 81.8 °F 60.8 °F 30.07 in WNW 0.3 mph 1.2 mph 49 % 0.00 in
11:36 81.9 °F 58.5 °F 30.07 in WNW 1.5 mph 4.6 mph 45 % 0.00 in
11:41 82.2 °F 56.2 °F 30.07 in SW 3.3 mph 4.6 mph 41 % 0.00 in
11:46 82.5 °F 57.1 °F 30.07 in SW 3.4 mph 4.6 mph 42 % 0.00 in
11:51 82.9 °F 58.7 °F 30.07 in SW 2.7 mph 6.0 mph 44 % 0.00 in
11:56 83.3 °F 59.1 °F 30.07 in SW 1.2 mph 5.8 mph 44 % 0.00 in
12:01 83.8 °F 58.9 °F 30.07 in SW 2.8 mph 4.0 mph 43 % 0.00 in
12:06 84.0 °F 57.1 °F 30.07 in WSW 4.1 mph 6.9 mph 40 % 0.00 in
12:11 84.0 °F 58.4 °F 30.07 in West 4.1 mph 5.8 mph 42 % 0.00 in
12:16 84.3 °F 57.3 °F 30.07 in WSW 3.4 mph 5.8 mph 40 % 0.00 in
12:22 84.6 °F 61.5 °F 30.07 in South 2.1 mph 6.9 mph 46 % 0.00 in
12:27 84.7 °F 59.7 °F 30.06 in NW 1.9 mph 9.2 mph 43 % 0.00 in
12:32 85.0 °F 58.0 °F 30.06 in WSW 1.6 mph 3.5 mph 40 % 0.00 in
12:37 85.2 °F 56.0 °F 30.06 in SSW 3.0 mph 5.0 mph 37 % 0.00 in
12:42 85.4 °F 57.6 °F 30.06 in NNW 3.1 mph 5.8 mph 39 % 0.00 in
12:47 85.4 °F 56.9 °F 30.06 in SSW 2.9 mph 4.6 mph 38 % 0.00 in
12:52 85.7 °F 57.9 °F 30.06 in WSW 2.0 mph 3.5 mph 39 % 0.00 in
12:57 85.6 °F 57.8 °F 30.06 in SW 3.2 mph 5.0 mph 39 % 0.00 in
13:02 85.3 °F 58.2 °F 30.05 in SSW 4.0 mph 5.0 mph 40 % 0.00 in
13:07 85.1 °F 57.4 °F 30.05 in SW 4.4 mph 8.1 mph 39 % 0.00 in
13:13 85.1 °F 57.4 °F 30.05 in WSW 2.9 mph 8.0 mph 39 % 0.00 in
13:18 85.1 °F 57.4 °F 30.05 in WSW 2.9 mph 8.0 mph 39 % 0.00 in
13:23 85.1 °F 58.1 °F 30.05 in SSW 1.9 mph 6.9 mph 40 % 0.00 in
13:33 85.3 °F 57.5 °F 30.05 in West 3.1 mph 4.6 mph 39 % 0.00 in
13:38 85.1 °F 55.9 °F 30.05 in SW 3.0 mph 4.0 mph 37 % 0.00 in
13:43 84.9 °F 57.2 °F 30.04 in South 3.9 mph 6.9 mph 39 % 0.00 in
13:48 84.4 °F 55.3 °F 30.04 in WSW 3.5 mph 5.0 mph 37 % 0.00 in
13:53 84.0 °F 57.1 °F 30.04 in WSW 1.7 mph 3.5 mph 40 % 0.00 in
13:58 83.6 °F 56.7 °F 30.04 in WNW 1.3 mph 3.5 mph 40 % 0.00 in
14:04 83.3 °F 56.5 °F 30.04 in South 2.5 mph 3.5 mph 40 % 0.00 in
14:09 83.1 °F 58.3 °F 30.05 in SW 0.7 mph 3.5 mph 43 % 0.00 in
14:14 83.1 °F 60.2 °F 30.05 in SSW 3.7 mph 5.8 mph 46 % 0.00 in
14:19 83.1 °F 57.6 °F 30.04 in SSW 3.1 mph 5.8 mph 42 % 0.00 in
14:24 82.9 °F 56.8 °F 30.04 in WSW 1.9 mph 8.1 mph 41 % 0.00 in
14:29 82.7 °F 55.9 °F 30.04 in South 0.4 mph 2.3 mph 40 % 0.00 in
14:39 82.3 °F 56.2 °F 30.04 in SW 1.6 mph 2.3 mph 41 % 0.00 in
14:44 82.1 °F 56.7 °F 30.04 in SSE 0.2 mph 3.5 mph 42 % 0.00 in
14:50 82.0 °F 57.3 °F 30.04 in SSW 1.8 mph 4.6 mph 43 % 0.00 in
14:55 81.9 °F 57.2 °F 30.04 in SW 0.7 mph 2.3 mph 43 % 0.00 in
15:00 81.8 °F 55.1 °F 30.04 in SSW 1.6 mph 5.8 mph 40 % 0.00 in
15:05 81.7 °F 55.7 °F 30.04 in SW 2.2 mph 3.5 mph 41 % 0.00 in
15:10 81.6 °F 56.9 °F 30.04 in SW 6.0 mph 10.4 mph 43 % 0.00 in
15:15 81.3 °F 59.1 °F 30.04 in SSW 2.9 mph 3.5 mph 47 % 0.00 in
15:20 81.0 °F 58.9 °F 30.03 in SSW 2.6 mph 4.0 mph 47 % 0.00 in
15:25 80.8 °F 59.9 °F 30.04 in SSW 1.7 mph 4.6 mph 49 % 0.00 in
15:30 80.5 °F 58.4 °F 30.04 in SSW 4.1 mph 4.6 mph 47 % 0.00 in
15:35 80.2 °F 57.5 °F 30.03 in South 1.1 mph 3.5 mph 46 % 0.00 in
15:41 79.7 °F 58.3 °F 30.03 in South 1.3 mph 3.5 mph 48 % 0.00 in
15:46 79.3 °F 58.5 °F 30.03 in SE 0.8 mph 3.5 mph 49 % 0.00 in
15:51 78.9 °F 57.5 °F 30.03 in SSW 2.3 mph 5.8 mph 48 % 0.00 in
15:56 78.7 °F 57.9 °F 30.03 in South 1.9 mph 5.8 mph 49 % 0.00 in
16:01 78.7 °F 59.0 °F 30.03 in South 1.3 mph 3.5 mph 51 % 0.00 in
16:06 78.8 °F 59.7 °F 30.03 in South 1.6 mph 3.5 mph 52 % 0.00 in
16:11 78.9 °F 59.2 °F 30.02 in SSE 0.6 mph 2.3 mph 51 % 0.00 in
16:16 78.7 °F 57.9 °F 30.02 in SE 1.4 mph 4.6 mph 49 % 0.00 in
16:21 78.6 °F 58.4 °F 30.02 in South 2.6 mph 5.8 mph 50 % 0.00 in
16:26 78.6 °F 58.4 °F 30.02 in SSW 0.9 mph 4.6 mph 50 % 0.00 in
16:32 78.6 °F 57.8 °F 30.02 in SW 1.9 mph 5.8 mph 49 % 0.00 in
16:37 78.2 °F 57.5 °F 30.02 in SSE 1.0 mph 3.5 mph 49 % 0.00 in
16:42 78.0 °F 57.9 °F 30.02 in South 1.8 mph 3.5 mph 50 % 0.00 in
16:47 77.9 °F 57.8 °F 30.02 in SSW 1.0 mph 6.9 mph 50 % 0.00 in
16:52 77.8 °F 57.7 °F 30.02 in South 1.5 mph 3.5 mph 50 % 0.00 in
16:57 77.7 °F 57.6 °F 30.02 in SW 1.2 mph 3.5 mph 50 % 0.00 in
17:02 77.6 °F 58.0 °F 30.02 in SSW 2.5 mph 3.5 mph 51 % 0.00 in
17:07 77.6 °F 57.5 °F 30.02 in SSW 1.2 mph 3.5 mph 50 % 0.00 in
17:12 77.5 °F 56.8 °F 30.01 in South 1.1 mph 3.5 mph 49 % 0.00 in
17:17 77.4 °F 57.9 °F 30.02 in SSW 1.3 mph 3.5 mph 51 % 0.00 in
17:23 77.4 °F 57.9 °F 30.02 in SSW 1.1 mph 4.6 mph 51 % 0.00 in
17:33 77.2 °F 58.7 °F 30.02 in WSW 0.7 mph 2.3 mph 53 % 0.00 in
17:38 77.1 °F 57.6 °F 30.01 in SSW 2.0 mph 5.8 mph 51 % 0.00 in
17:43 77.0 °F 56.9 °F 30.01 in SW 4.8 mph 8.1 mph 50 % 0.00 in
17:48 76.9 °F 56.8 °F 30.01 in SSW 0.8 mph 3.0 mph 50 % 0.00 in
17:58 76.7 °F 56.7 °F 30.01 in SSW 3.5 mph 8.0 mph 50 % 0.00 in
18:03 76.7 °F 56.7 °F 30.01 in SSW 1.2 mph 3.0 mph 50 % 0.00 in
18:08 76.5 °F 55.9 °F 30.01 in South 2.3 mph 5.8 mph 49 % 0.00 in
18:14 76.5 °F 56.5 °F 30.01 in South 1.6 mph 3.5 mph 50 % 0.00 in
18:19 76.4 °F 57.5 °F 30.01 in SSW 1.6 mph 4.0 mph 52 % 0.00 in
18:29 76.2 °F 58.3 °F 30.02 in SW 1.2 mph 3.5 mph 54 % 0.00 in
18:34 76.1 °F 58.8 °F 30.02 in SSW 1.4 mph 3.5 mph 55 % 0.00 in
18:39 75.9 °F 59.6 °F 30.02 in SSW 0.9 mph 3.5 mph 57 % 0.00 in
18:44 75.8 °F 60.0 °F 30.02 in SW 0.6 mph 1.2 mph 58 % 0.00 in
18:49 75.7 °F 59.9 °F 30.02 in SSW 0.9 mph 2.3 mph 58 % 0.00 in
18:54 75.6 °F 60.3 °F 30.02 in South 0.9 mph 3.5 mph 59 % 0.00 in
18:59 75.5 °F 60.6 °F 30.02 in South 0.1 mph 2.3 mph 60 % 0.00 in
19:05 75.3 °F 60.5 °F 30.02 in SSW 2.0 mph 3.5 mph 60 % 0.00 in
19:10 75.2 °F 60.8 °F 30.02 in South 2.8 mph 5.8 mph 61 % 0.00 in
19:15 75.1 °F 61.2 °F 30.02 in SW 1.6 mph 3.5 mph 62 % 0.00 in
19:20 75.0 °F 61.1 °F 30.01 in SSW 2.6 mph 4.0 mph 62 % 0.00 in
19:25 74.8 °F 61.4 °F 30.02 in SW 3.4 mph 7.0 mph 63 % 0.00 in
19:30 74.7 °F 60.8 °F 30.02 in SSW 0.3 mph 1.2 mph 62 % 0.00 in
19:35 74.6 °F 61.2 °F 30.02 in SSW 0.3 mph 1.2 mph 63 % 0.00 in
19:40 74.5 °F 61.1 °F 30.02 in SSW 2.1 mph 3.5 mph 63 % 0.00 in
19:45 74.3 °F 60.9 °F 30.02 in SSW 3.3 mph 4.6 mph 63 % 0.00 in
19:50 74.2 °F 60.8 °F 30.02 in SW 1.7 mph 4.0 mph 63 % 0.00 in
19:56 74.1 °F 60.7 °F 30.02 in SSW 2.7 mph 4.6 mph 63 % 0.00 in
20:01 73.9 °F 60.5 °F 30.02 in SW 2.5 mph 6.9 mph 63 % 0.00 in
20:06 73.8 °F 60.4 °F 30.02 in SW 0.8 mph 2.3 mph 63 % 0.00 in
20:11 73.7 °F 60.8 °F 30.02 in SSW 1.5 mph 3.5 mph 64 % 0.00 in
20:16 73.6 °F 60.2 °F 30.02 in SW 2.5 mph 4.6 mph 63 % 0.00 in
20:21 73.4 °F 60.0 °F 30.02 in SW 1.6 mph 3.0 mph 63 % 0.00 in
20:26 73.4 °F 60.0 °F 30.02 in SSW 2.4 mph 3.5 mph 63 % 0.00 in
20:31 73.3 °F 59.9 °F 30.02 in WSW 2.6 mph 5.0 mph 63 % 0.00 in
20:36 73.1 °F 59.8 °F 30.02 in SW 3.7 mph 6.9 mph 63 % 0.00 in
20:41 73.0 °F 60.1 °F 30.02 in SW 1.1 mph 5.8 mph 64 % 0.00 in
20:47 72.9 °F 60.0 °F 30.01 in WSW 0.2 mph 3.5 mph 64 % 0.00 in
20:52 72.8 °F 59.9 °F 30.02 in SW 0.5 mph 3.5 mph 64 % 0.00 in
20:57 72.7 °F 60.3 °F 30.02 in SW 0.8 mph 2.3 mph 65 % 0.00 in
21:02 72.6 °F 60.2 °F 30.02 in SW 0.5 mph 3.5 mph 65 % 0.00 in
21:07 72.4 °F 60.0 °F 30.02 in SSW 0.1 mph 1.2 mph 65 % 0.00 in
21:12 72.4 °F 60.4 °F 30.02 in SSW 0.6 mph 3.0 mph 66 % 0.00 in
21:17 72.2 °F 60.6 °F 30.02 in SSW 1.7 mph 3.5 mph 67 % 0.00 in
21:22 72.1 °F 60.5 °F 30.02 in SSW 2.1 mph 3.5 mph 67 % 0.00 in
21:27 72.0 °F 60.9 °F 30.02 in West 0.6 mph 2.3 mph 68 % 0.00 in
21:38 71.8 °F 61.1 °F 30.02 in SW 0.2 mph 3.5 mph 69 % 0.00 in
21:43 71.7 °F 61.0 °F 30.02 in SSW 2.1 mph 2.3 mph 69 % 0.00 in
21:48 71.7 °F 61.0 °F 30.02 in SW 1.3 mph 4.6 mph 69 % 0.00 in
21:53 71.6 °F 61.3 °F 30.03 in SSW 0.3 mph 2.3 mph 70 % 0.00 in
21:58 71.5 °F 61.2 °F 30.02 in West 1.9 mph 3.5 mph 70 % 0.00 in
22:03 71.5 °F 61.6 °F 30.02 in SSE 0.9 mph 4.6 mph 71 % 0.00 in
22:08 71.4 °F 61.5 °F 30.02 in West 1.7 mph 6.0 mph 71 % 0.00 in
22:13 71.3 °F 61.4 °F 30.02 in SW 0.4 mph 1.2 mph 71 % 0.00 in
22:18 71.3 °F 61.4 °F 30.03 in SW 0.6 mph 2.0 mph 71 % 0.00 in
22:23 71.2 °F 61.3 °F 30.03 in SW 0.8 mph 2.3 mph 71 % 0.00 in
22:29 71.2 °F 61.3 °F 30.03 in SW 0.5 mph 1.2 mph 71 % 0.00 in
22:34 71.1 °F 61.6 °F 30.03 in SW 2.1 mph 3.5 mph 72 % 0.00 in
22:39 71.0 °F 61.5 °F 30.03 in SW 2.7 mph 9.2 mph 72 % 0.00 in
22:44 71.0 °F 61.5 °F 30.03 in SW 0.7 mph 4.6 mph 72 % 0.00 in
22:49 70.9 °F 61.4 °F 30.03 in SW 0.1 mph 1.2 mph 72 % 0.00 in
22:54 70.8 °F 61.3 °F 30.03 in WSW 0.2 mph 1.2 mph 72 % 0.00 in
22:59 70.8 °F 61.3 °F 30.03 in SW 0.2 mph 1.0 mph 72 % 0.00 in
23:04 70.7 °F 61.2 °F 30.03 in SW 0.6 mph 1.2 mph 72 % 0.00 in
23:09 70.6 °F 61.5 °F 30.03 in WSW 0.3 mph 2.3 mph 73 % 0.00 in
23:14 70.5 °F 61.0 °F 30.03 in SW 0.8 mph 1.2 mph 72 % 0.00 in
23:20 70.3 °F 61.2 °F 30.03 in SSW 1.7 mph 3.5 mph 73 % 0.00 in
23:25 70.2 °F 61.1 °F 30.03 in SSW 1.0 mph 2.3 mph 73 % 0.00 in
23:30 70.1 °F 61.0 °F 30.03 in SW 1.2 mph 3.5 mph 73 % 0.00 in
23:35 70.0 °F 60.9 °F 30.03 in WSW 0.5 mph 1.2 mph 73 % 0.00 in
23:40 69.9 °F 61.2 °F 30.03 in WSW 0.1 mph 1.2 mph 74 % 0.00 in
23:45 69.8 °F 61.1 °F 30.03 in WSW 0.5 mph 2.3 mph 74 % 0.00 in
23:50 69.7 °F 61.0 °F 30.03 in SW 0.4 mph 1.2 mph 74 % 0.00 in
23:55 69.6 °F 60.9 °F 30.03 in SW 0.4 mph 2.3 mph 74 % 0.00 in
Crab Meadow Weather
Compliments of Weather Underground - 2.75 mb

Script developed by  Jim McMurry - jmcmurry@mwt.net Adapted for the template by  Wim van der Kuil - Leuven-Template.eu

Extremes: The heaviest hailstones on record, weighing up to 2.25 pounds were reported to have killed 92 people in the Gopalganj district of Bangladesh on April 14, 1986.